createdAt,value
2019-05-21T00:00:24.215Z,16.12
2019-05-21T00:02:57.576Z,15.75
2019-05-21T00:05:30.504Z,16.73
2019-05-21T00:08:03.433Z,20.88
2019-05-21T00:10:36.262Z,26.52
2019-05-21T00:13:09.374Z,20.45
2019-05-21T00:15:42.213Z,13.22
2019-05-21T00:18:15.013Z,15.03
2019-05-21T00:20:47.858Z,18.65
2019-05-21T00:23:20.644Z,17.02
2019-05-21T00:25:53.533Z,19.25
2019-05-21T00:28:42.202Z,22.17
2019-05-21T00:32:08.916Z,19.75
2019-05-21T00:35:46.519Z,20.20
2019-05-21T00:39:13.441Z,19.60
2019-05-21T00:42:03.561Z,20.48
2019-05-21T00:44:40.412Z,19.73
2019-05-21T00:47:14.297Z,18.85
2019-05-21T00:49:47.122Z,19.17
2019-05-21T00:52:20.002Z,25.77
2019-05-21T00:54:52.901Z,20.17
2019-05-21T00:57:25.787Z,19.02
2019-05-21T00:59:59.682Z,18.90
2019-05-21T01:02:32.698Z,23.95
2019-05-21T01:05:05.677Z,18.70
2019-05-21T01:07:38.569Z,23.05
2019-05-21T01:10:11.525Z,22.05
2019-05-21T01:12:44.415Z,28.50
2019-05-21T01:15:17.255Z,26.85
2019-05-21T01:17:50.288Z,33.15
2019-05-21T01:20:23.352Z,31.97
2019-05-21T01:22:56.247Z,30.12
2019-05-21T01:25:29.364Z,25.65
2019-05-21T01:28:02.277Z,30.05
2019-05-21T01:30:35.096Z,29.05
2019-05-21T01:33:07.906Z,23.87
2019-05-21T01:35:40.768Z,24.65
2019-05-21T01:38:13.558Z,25.25
2019-05-21T01:40:46.469Z,28.65
2019-05-21T01:43:19.308Z,24.55
2019-05-21T01:45:52.145Z,22.85
2019-05-21T01:48:24.963Z,23.30
2019-05-21T01:50:57.842Z,23.75
2019-05-21T01:53:30.725Z,19.40
2019-05-21T01:56:03.608Z,19.57
2019-05-21T01:58:37.683Z,21.00
2019-05-21T02:01:10.547Z,23.67
2019-05-21T02:03:43.771Z,24.30
2019-05-21T02:06:16.775Z,30.12
2019-05-21T02:08:49.581Z,26.55
2019-05-21T02:11:22.578Z,22.15
2019-05-21T02:13:55.485Z,19.40
2019-05-21T02:16:28.282Z,19.57
2019-05-21T02:19:01.091Z,24.77
2019-05-21T02:21:34.170Z,24.12
2019-05-21T02:24:07.135Z,33.00
2019-05-21T02:26:39.939Z,32.67
2019-05-21T02:29:12.760Z,31.97
2019-05-21T02:31:45.630Z,41.08
2019-05-21T02:34:18.398Z,30.80
2019-05-21T02:36:51.215Z,34.90
2019-05-21T02:39:25.012Z,22.45
2019-05-21T02:41:57.858Z,21.50
2019-05-21T02:44:30.705Z,23.92
2019-05-21T02:47:03.632Z,30.62
2019-05-21T02:49:36.508Z,35.65
2019-05-21T02:52:09.369Z,35.75
2019-05-21T02:54:42.255Z,50.92
2019-05-21T02:57:15.089Z,44.40
2019-05-21T02:59:49.581Z,32.28
2019-05-21T03:02:29.991Z,32.90
2019-05-21T03:05:02.777Z,17.25
2019-05-21T03:07:35.760Z,22.70
2019-05-21T03:10:08.977Z,32.65
2019-05-21T03:12:41.777Z,32.48
2019-05-21T03:15:14.797Z,33.85
2019-05-21T03:17:47.617Z,40.95
2019-05-21T03:20:20.799Z,44.88
2019-05-21T03:22:53.680Z,37.95
2019-05-21T03:25:26.501Z,31.40
2019-05-21T03:27:59.316Z,24.07
2019-05-21T03:30:33.286Z,25.05
2019-05-21T03:33:06.148Z,30.92
2019-05-21T03:35:38.999Z,34.48
2019-05-21T03:38:11.832Z,34.83
2019-05-21T03:40:44.712Z,31.93
2019-05-21T03:43:17.527Z,30.00
2019-05-21T03:45:50.309Z,44.65
2019-05-21T03:48:23.118Z,36.55
2019-05-21T03:50:56.018Z,27.80
2019-05-21T03:53:28.855Z,26.62
2019-05-21T03:56:01.737Z,22.52
2019-05-21T03:58:34.643Z,40.88
2019-05-21T04:01:07.451Z,35.90
2019-05-21T04:03:41.348Z,36.08
2019-05-21T04:06:14.181Z,31.33
2019-05-21T04:08:47.074Z,32.42
2019-05-21T04:11:19.880Z,25.97
2019-05-21T04:13:52.713Z,16.75
2019-05-21T04:16:44.695Z,17.75
2019-05-21T04:19:31.115Z,21.48
2019-05-21T04:22:03.930Z,21.48
2019-05-21T04:24:36.849Z,22.70
2019-05-21T04:27:09.646Z,29.27
2019-05-21T04:29:42.688Z,25.80
2019-05-21T04:32:15.541Z,30.68
2019-05-21T04:34:48.742Z,27.90
2019-05-21T04:37:21.937Z,30.17
2019-05-21T04:39:55.003Z,21.35
2019-05-21T04:42:27.829Z,18.70
2019-05-21T04:45:00.669Z,26.60
2019-05-21T04:47:33.486Z,20.75
2019-05-21T04:50:06.834Z,24.75
2019-05-21T04:52:39.639Z,19.90
2019-05-21T04:55:12.829Z,26.30
2019-05-21T04:57:45.704Z,20.23
2019-05-21T05:00:18.649Z,20.88
2019-05-21T05:02:51.481Z,17.25
2019-05-21T05:05:24.422Z,19.12
2019-05-21T05:07:57.237Z,19.82
2019-05-21T05:10:30.232Z,25.95
2019-05-21T05:13:04.089Z,15.15
2019-05-21T05:15:36.945Z,19.40
2019-05-21T05:18:09.837Z,17.90
2019-05-21T05:20:42.722Z,17.02
2019-05-21T05:23:15.615Z,14.07
2019-05-21T05:25:48.442Z,17.37
2019-05-21T05:28:21.258Z,16.05
2019-05-21T05:30:54.154Z,13.68
2019-05-21T05:33:26.991Z,12.00
2019-05-21T05:35:59.828Z,10.88
2019-05-21T05:38:32.688Z,14.23
2019-05-21T05:41:05.515Z,11.73
2019-05-21T05:43:38.393Z,15.72
2019-05-21T05:46:11.289Z,13.58
2019-05-21T05:49:09.089Z,10.13
2019-05-21T05:51:41.973Z,16.15
2019-05-21T05:54:14.857Z,18.48
2019-05-21T05:56:47.752Z,15.90
2019-05-21T05:59:20.629Z,16.40
2019-05-21T06:01:53.530Z,12.33
2019-05-21T06:04:26.429Z,9.68
2019-05-21T06:06:59.294Z,16.93
2019-05-21T06:09:32.257Z,16.48
2019-05-21T06:12:05.161Z,11.93
2019-05-21T06:14:38.083Z,10.53
2019-05-21T06:17:11.041Z,8.90
2019-05-21T06:19:43.908Z,13.83
2019-05-21T06:22:16.819Z,13.03
2019-05-21T06:24:49.929Z,8.60
2019-05-21T06:27:22.914Z,9.90
2019-05-21T06:29:55.782Z,12.37
2019-05-21T06:32:28.582Z,12.78
2019-05-21T06:35:01.387Z,7.62
2019-05-21T06:37:34.272Z,11.90
2019-05-21T06:40:08.567Z,7.05
2019-05-21T06:42:41.487Z,8.48
2019-05-21T06:45:15.114Z,12.40
2019-05-21T06:47:47.975Z,7.53
2019-05-21T06:50:21.182Z,9.45
2019-05-21T06:52:54.087Z,5.20
2019-05-21T06:55:26.985Z,7.10
2019-05-21T06:58:00.766Z,5.37
2019-05-21T07:00:33.641Z,6.97
2019-05-21T07:03:06.657Z,4.95
2019-05-21T07:05:39.520Z,7.72
2019-05-21T07:08:12.516Z,10.23
2019-05-21T07:10:45.343Z,3.55
2019-05-21T07:13:18.232Z,4.53
2019-05-21T07:15:51.154Z,4.55
2019-05-21T07:18:24.128Z,5.25
2019-05-21T07:20:57.037Z,5.55
2019-05-21T07:23:29.908Z,8.13
2019-05-21T07:26:02.740Z,4.20
2019-05-21T07:28:35.693Z,8.78
2019-05-21T07:31:08.613Z,9.58
2019-05-21T07:33:41.531Z,5.22
2019-05-21T07:36:14.623Z,4.12
2019-05-21T07:38:53.305Z,4.20
2019-05-21T07:41:22.099Z,7.15
2019-05-21T07:43:54.903Z,4.75
2019-05-21T07:46:28.692Z,6.55
2019-05-21T07:49:01.496Z,5.20
2019-05-21T07:51:35.376Z,5.37
2019-05-21T07:54:08.249Z,4.35
2019-05-21T07:56:41.043Z,5.22
2019-05-21T07:59:13.823Z,7.72
2019-05-21T08:01:46.622Z,5.10
2019-05-21T08:04:19.548Z,5.00
2019-05-21T08:06:53.471Z,8.75
2019-05-21T08:09:26.676Z,9.48
2019-05-21T08:11:59.476Z,6.17
2019-05-21T08:14:32.474Z,5.85
2019-05-21T08:17:05.378Z,6.40
2019-05-21T08:19:38.780Z,6.15
2019-05-21T08:22:11.568Z,5.33
2019-05-21T08:24:44.527Z,5.25
2019-05-21T08:27:17.368Z,5.83
2019-05-21T08:29:50.237Z,7.85
2019-05-21T08:32:23.148Z,11.25
2019-05-21T08:34:56.135Z,5.25
2019-05-21T08:37:29.034Z,5.53
2019-05-21T08:40:01.991Z,5.30
2019-05-21T08:42:34.936Z,8.65
2019-05-21T08:45:09.578Z,6.92
2019-05-21T08:47:42.477Z,11.00
2019-05-21T08:50:15.464Z,4.22
2019-05-21T08:52:48.293Z,5.53
2019-05-21T08:55:21.189Z,5.78
2019-05-21T09:00:29.165Z,6.67
2019-05-21T09:03:02.050Z,7.87
2019-05-21T09:03:13.830Z,13.18
2019-05-21T09:05:34.833Z,9.03
2019-05-21T09:08:07.861Z,5.00
2019-05-21T09:10:43.618Z,4.00
2019-05-21T09:13:18.152Z,5.33
2019-05-21T09:15:51.190Z,4.90
2019-05-21T09:18:24.072Z,4.25
2019-05-21T09:20:56.895Z,6.60
2019-05-21T09:23:29.681Z,4.33
2019-05-21T09:26:02.468Z,7.60
2019-05-21T09:28:35.280Z,6.15
2019-05-21T09:31:08.059Z,5.87
2019-05-21T09:33:42.054Z,4.30
2019-05-21T09:36:14.923Z,5.42
2019-05-21T09:38:47.732Z,5.55
2019-05-21T09:41:20.514Z,5.55
2019-05-21T09:43:53.401Z,5.87
2019-05-21T09:46:26.323Z,4.83
2019-05-21T09:48:59.230Z,5.72
2019-05-21T09:51:32.058Z,4.90
2019-05-21T09:54:05.722Z,5.05
2019-05-21T09:56:38.718Z,5.97
2019-05-21T09:59:32.409Z,7.72
2019-05-21T10:02:10.309Z,5.95
2019-05-21T10:04:43.108Z,6.92
2019-05-21T10:07:16.192Z,5.65
2019-05-21T10:09:49.079Z,7.37
2019-05-21T10:12:22.734Z,6.45
2019-05-21T10:14:55.620Z,8.13
2019-05-21T10:17:28.435Z,7.17
2019-05-21T10:20:01.368Z,5.92
2019-05-21T10:22:34.235Z,4.60
2019-05-21T10:25:07.868Z,8.30
2019-05-21T10:27:40.779Z,4.80
2019-05-21T10:30:13.977Z,4.25
2019-05-21T10:32:46.903Z,6.25
2019-05-21T10:35:19.795Z,4.25
2019-05-21T10:37:55.369Z,5.05
2019-05-21T10:40:27.330Z,7.42
2019-05-21T10:43:00.215Z,5.37
2019-05-21T10:45:33.083Z,6.65
2019-05-21T10:48:05.952Z,7.40
2019-05-21T10:50:38.825Z,8.63
2019-05-21T10:53:11.688Z,8.65
2019-05-21T10:55:44.580Z,6.37
2019-05-21T10:58:17.381Z,4.75
2019-05-21T11:00:52.021Z,6.58
2019-05-21T11:03:43.865Z,4.12
2019-05-21T11:06:17.171Z,8.95
2019-05-21T11:08:50.264Z,9.68
2019-05-21T11:11:23.376Z,12.78
2019-05-21T11:13:56.214Z,6.55
2019-05-21T11:16:29.084Z,6.80
2019-05-21T11:19:02.340Z,6.03
2019-05-21T11:21:35.320Z,11.95
2019-05-21T11:24:08.152Z,6.78
2019-05-21T11:26:41.071Z,7.08
2019-05-21T11:29:13.901Z,5.65
2019-05-21T11:31:56.401Z,9.28
2019-05-21T11:34:21.355Z,9.38
2019-05-21T11:36:54.204Z,9.33
2019-05-21T11:39:27.057Z,7.62
2019-05-21T11:41:59.829Z,5.12
2019-05-21T11:44:32.646Z,7.92
2019-05-21T11:47:05.884Z,7.10
2019-05-21T11:49:38.767Z,6.25
2019-05-21T11:52:11.671Z,7.15
2019-05-21T11:54:44.453Z,6.22
2019-05-21T11:57:17.361Z,5.40
2019-05-21T11:59:50.273Z,7.45
2019-05-21T12:02:23.254Z,4.45
2019-05-21T12:04:56.092Z,4.17
2019-05-21T12:07:29.112Z,3.80
2019-05-21T12:10:01.944Z,7.25
2019-05-21T12:12:34.903Z,5.97
2019-05-21T12:15:09.018Z,6.05
2019-05-21T12:17:42.504Z,6.45
2019-05-21T12:20:35.282Z,5.28
2019-05-21T12:22:58.227Z,6.72
2019-05-21T12:25:32.482Z,6.45
2019-05-21T12:28:05.543Z,7.53
2019-05-21T12:30:39.398Z,7.92
2019-05-21T12:33:12.235Z,5.65
2019-05-21T12:35:45.544Z,10.80
2019-05-21T12:38:18.400Z,9.88
2019-05-21T12:40:52.558Z,11.38
2019-05-21T12:43:25.447Z,9.10
2019-05-21T12:45:58.223Z,6.83
2019-05-21T12:48:31.532Z,7.72
2019-05-21T12:51:04.593Z,9.40
2019-05-21T12:53:37.695Z,6.83
2019-05-21T12:56:10.810Z,7.80
2019-05-21T12:58:44.289Z,7.05
2019-05-21T13:01:17.353Z,7.62
2019-05-21T13:03:50.351Z,10.72
2019-05-21T13:06:23.416Z,13.58
2019-05-21T13:08:56.628Z,11.78
2019-05-21T13:11:31.111Z,9.78
2019-05-21T13:14:06.367Z,13.25
2019-05-21T13:16:42.149Z,15.00
2019-05-21T13:19:15.056Z,11.93
2019-05-21T13:21:48.224Z,9.23
2019-05-21T13:24:21.359Z,10.13
2019-05-21T13:26:54.363Z,8.65
2019-05-21T13:29:27.451Z,10.85
2019-05-21T13:32:00.383Z,9.85
2019-05-21T13:34:33.254Z,7.70
2019-05-21T13:37:08.728Z,12.40
2019-05-21T13:39:50.192Z,11.90
2019-05-21T13:42:19.818Z,10.72
2019-05-21T13:44:53.077Z,10.13
2019-05-21T13:47:27.333Z,10.85
2019-05-21T13:50:04.060Z,10.18
2019-05-21T13:52:36.954Z,8.83
2019-05-21T13:55:10.717Z,14.05
2019-05-21T13:57:47.001Z,9.20
2019-05-21T14:00:26.322Z,15.10
2019-05-21T14:03:01.597Z,11.10
2019-05-21T14:05:38.275Z,9.10
2019-05-21T14:08:11.376Z,8.43
2019-05-21T14:10:44.341Z,8.83
2019-05-21T14:13:17.374Z,9.75
2019-05-21T14:15:50.215Z,8.38
2019-05-21T14:18:23.289Z,8.50
2019-05-21T14:20:59.124Z,7.90
2019-05-21T14:23:35.136Z,7.85
2019-05-21T14:26:08.429Z,8.40
2019-05-21T14:28:43.288Z,6.83
2019-05-21T14:31:24.971Z,8.80
2019-05-21T14:33:57.914Z,8.38
2019-05-21T14:36:30.936Z,5.80
2019-05-21T14:39:06.586Z,8.28
2019-05-21T14:41:39.549Z,5.15
2019-05-21T14:44:12.564Z,7.70
2019-05-21T14:46:45.789Z,8.55
2019-05-21T14:49:20.087Z,7.08
2019-05-21T14:51:53.752Z,9.65
2019-05-21T14:54:27.279Z,10.63
2019-05-21T14:57:00.419Z,7.65
2019-05-21T14:59:36.579Z,7.92
2019-05-21T15:02:09.428Z,9.68
2019-05-21T15:04:42.819Z,11.45
2019-05-21T15:07:16.068Z,7.78
2019-05-21T15:09:53.161Z,10.88
2019-05-21T15:12:23.564Z,10.23
2019-05-21T15:14:56.398Z,10.45
2019-05-21T15:17:29.508Z,8.95
2019-05-21T15:20:05.688Z,11.20
2019-05-21T15:22:38.594Z,7.87
2019-05-21T15:25:11.726Z,11.90
2019-05-21T15:27:44.704Z,11.75
2019-05-21T15:30:17.864Z,9.58
2019-05-21T15:32:50.824Z,9.90
2019-05-21T15:35:23.656Z,12.45
2019-05-21T15:37:56.882Z,10.05
2019-05-21T15:40:29.851Z,8.65
2019-05-21T15:43:02.823Z,8.58
2019-05-21T15:45:35.734Z,13.32
2019-05-21T15:48:08.527Z,5.42
2019-05-21T15:50:41.425Z,8.30
2019-05-21T15:53:14.249Z,6.33
2019-05-21T15:55:47.226Z,5.53
2019-05-21T15:58:20.246Z,12.93
2019-05-21T16:00:53.350Z,6.95
2019-05-21T16:03:26.113Z,8.98
2019-05-21T16:05:59.141Z,6.62
2019-05-21T16:08:33.310Z,4.70
2019-05-21T16:11:06.391Z,5.87
2019-05-21T16:13:39.285Z,5.65
2019-05-21T16:16:12.273Z,4.40
2019-05-21T16:18:45.229Z,4.50
2019-05-21T16:21:19.664Z,8.08
2019-05-21T16:23:52.501Z,7.80
2019-05-21T16:26:25.986Z,10.65
2019-05-21T16:28:58.913Z,8.40
2019-05-21T16:31:31.916Z,7.55
2019-05-21T16:34:04.797Z,9.43
2019-05-21T16:36:37.739Z,9.20
2019-05-21T16:39:10.675Z,7.10
2019-05-21T16:41:45.325Z,7.67
2019-05-21T16:44:18.176Z,8.38
2019-05-21T16:46:51.060Z,8.03
2019-05-21T16:49:24.038Z,9.88
2019-05-21T16:51:56.856Z,7.70
2019-05-21T16:54:29.698Z,7.97
2019-05-21T16:57:02.520Z,9.65
2019-05-21T16:59:35.294Z,9.85
2019-05-21T17:02:08.771Z,7.47
2019-05-21T17:04:41.742Z,12.40
2019-05-21T17:07:14.698Z,10.50
2019-05-21T17:09:47.603Z,8.18
2019-05-21T17:12:20.480Z,10.48
2019-05-21T17:14:53.518Z,8.63
2019-05-21T17:17:26.714Z,9.53
2019-05-21T17:19:59.617Z,9.23
2019-05-21T17:22:32.504Z,6.90
2019-05-21T17:25:06.239Z,9.40
2019-05-21T17:27:39.264Z,7.78
2019-05-21T17:30:13.199Z,12.33
2019-05-21T17:32:46.356Z,7.80
2019-05-21T17:35:19.402Z,12.05
2019-05-21T17:37:52.773Z,12.03
2019-05-21T17:40:25.739Z,8.83
2019-05-21T17:42:58.741Z,9.98
2019-05-21T17:45:31.696Z,11.57
2019-05-21T17:48:04.594Z,12.93
2019-05-21T17:50:37.805Z,11.48
2019-05-21T17:53:10.724Z,14.38
2019-05-21T17:55:43.628Z,13.32
2019-05-21T17:58:17.686Z,12.88
2019-05-21T18:00:54.553Z,12.15
2019-05-21T18:03:27.815Z,16.93
2019-05-21T18:06:00.910Z,15.25
2019-05-21T18:08:34.397Z,15.98
2019-05-21T18:11:07.634Z,13.25
2019-05-21T18:13:41.778Z,13.15
2019-05-21T18:16:15.305Z,11.90
2019-05-21T18:18:48.221Z,13.25
2019-05-21T18:21:22.057Z,15.85
2019-05-21T18:23:55.013Z,12.03
2019-05-21T18:26:27.843Z,12.63
2019-05-21T18:29:01.063Z,14.75
2019-05-21T18:31:33.938Z,19.42
2019-05-21T18:34:07.132Z,15.20
2019-05-21T18:36:40.167Z,20.97
2019-05-21T18:39:13.006Z,16.87
2019-05-21T18:41:46.466Z,16.90
2019-05-21T18:44:19.625Z,28.10
2019-05-21T18:46:52.659Z,12.25
2019-05-21T18:49:27.659Z,11.73
2019-05-21T18:52:00.474Z,8.70
2019-05-21T18:54:33.394Z,11.35
2019-05-21T18:57:06.888Z,11.18
2019-05-21T18:59:40.278Z,28.05
2019-05-21T19:02:14.008Z,13.55
2019-05-21T19:04:47.101Z,18.40
2019-05-21T19:07:20.159Z,12.33
2019-05-21T19:09:53.190Z,11.38
2019-05-21T19:12:37.620Z,9.43
2019-05-21T19:15:01.688Z,9.98
2019-05-21T19:17:36.247Z,7.53
2019-05-21T19:20:09.892Z,8.30
2019-05-21T19:22:43.969Z,9.78
2019-05-21T19:25:17.352Z,7.70
2019-05-21T19:27:50.226Z,10.20
2019-05-21T19:30:23.499Z,10.90
2019-05-21T19:32:56.803Z,7.80
2019-05-21T19:35:32.887Z,12.30
2019-05-21T19:38:04.446Z,10.40
2019-05-21T19:40:37.580Z,10.38
2019-05-21T19:43:10.606Z,8.15
2019-05-21T19:45:43.614Z,8.70
2019-05-21T19:48:16.541Z,9.48
2019-05-21T19:50:49.659Z,6.90
2019-05-21T19:53:22.822Z,9.78
2019-05-21T19:55:56.354Z,14.03
2019-05-21T19:58:29.376Z,8.15
2019-05-21T20:01:02.571Z,8.55
2019-05-21T20:03:35.677Z,8.80
2019-05-21T20:06:10.532Z,13.15
2019-05-21T20:08:44.663Z,15.05
2019-05-21T20:11:18.931Z,11.78
2019-05-21T20:13:51.931Z,13.90
2019-05-21T20:16:27.571Z,11.90
2019-05-21T20:19:00.539Z,10.10
2019-05-21T20:21:35.003Z,15.72
2019-05-21T20:24:09.134Z,10.80
2019-05-21T20:26:42.176Z,13.30
2019-05-21T20:29:15.289Z,14.03
2019-05-21T20:31:48.792Z,14.33
2019-05-21T20:34:22.382Z,13.13
2019-05-21T20:36:56.659Z,17.40
2019-05-21T20:39:31.039Z,12.25
2019-05-21T20:42:05.846Z,12.10
2019-05-21T20:44:38.864Z,16.02
2019-05-21T20:47:13.620Z,14.60
2019-05-21T20:49:49.003Z,15.08
2019-05-21T20:52:21.981Z,16.93
2019-05-21T20:54:56.992Z,11.85
2019-05-21T20:57:31.043Z,13.53
2019-05-21T21:00:04.413Z,13.03
2019-05-21T21:02:40.839Z,14.73
2019-05-21T21:05:14.846Z,14.25
2019-05-21T21:07:47.993Z,18.07
2019-05-21T21:10:21.242Z,13.78
2019-05-21T21:12:54.418Z,11.80
2019-05-21T21:15:27.406Z,11.48
2019-05-21T21:18:01.017Z,15.65
2019-05-21T21:20:34.676Z,11.55
2019-05-21T21:23:08.160Z,15.78
2019-05-21T21:25:41.216Z,16.48
2019-05-21T21:28:14.220Z,16.93
2019-05-21T21:30:48.378Z,13.75
2019-05-21T21:33:21.723Z,14.03
2019-05-21T21:35:54.628Z,13.62
2019-05-21T21:38:30.687Z,12.30
2019-05-21T21:41:03.795Z,14.83
2019-05-21T21:43:37.239Z,18.50
2019-05-21T21:46:10.216Z,23.35
2019-05-21T21:48:45.651Z,15.20
2019-05-21T21:51:18.636Z,18.15
2019-05-21T21:53:52.827Z,15.78
2019-05-21T21:56:25.840Z,17.25
2019-05-21T21:58:58.651Z,13.62
2019-05-21T22:02:00.189Z,16.52
2019-05-21T22:04:35.772Z,15.50
2019-05-21T22:07:08.652Z,16.37
2019-05-21T22:09:43.025Z,15.08
2019-05-21T22:12:17.903Z,13.93
2019-05-21T22:15:02.071Z,14.13
2019-05-21T22:17:36.143Z,14.43
2019-05-21T22:20:10.356Z,17.30
2019-05-21T22:22:43.369Z,12.00
2019-05-21T22:25:16.695Z,15.53
2019-05-21T22:27:49.573Z,15.93
2019-05-21T22:30:22.569Z,14.85
2019-05-21T22:32:55.382Z,14.20
2019-05-21T22:35:28.299Z,12.88
2019-05-21T22:38:01.200Z,17.82
2019-05-21T22:40:34.114Z,11.53
2019-05-21T22:43:07.344Z,14.33
2019-05-21T22:45:40.223Z,11.20
2019-05-21T22:48:13.304Z,15.75
2019-05-21T22:50:47.171Z,15.80
2019-05-21T22:53:20.174Z,11.22
2019-05-21T22:55:53.215Z,10.82
2019-05-21T22:58:26.134Z,11.95
2019-05-21T23:01:00.359Z,11.90
2019-05-21T23:03:33.386Z,13.58
2019-05-21T23:06:06.304Z,16.85
2019-05-21T23:08:40.006Z,11.45
2019-05-21T23:11:12.840Z,13.53
2019-05-21T23:13:45.906Z,17.27
2019-05-21T23:16:19.090Z,10.48
2019-05-21T23:19:10.658Z,12.05
2019-05-21T23:21:49.631Z,9.03
2019-05-21T23:24:23.771Z,12.88
2019-05-21T23:26:57.417Z,11.65
2019-05-21T23:29:30.969Z,11.85
2019-05-21T23:32:04.582Z,8.68
2019-05-21T23:34:38.453Z,13.38
2019-05-21T23:37:18.489Z,11.05
2019-05-21T23:39:54.566Z,12.43
2019-05-21T23:42:29.901Z,15.30
2019-05-21T23:45:02.905Z,14.28
2019-05-21T23:47:35.952Z,14.60
2019-05-21T23:50:09.758Z,11.63
2019-05-21T23:52:43.339Z,11.88
2019-05-21T23:55:16.626Z,12.85
2019-05-21T23:57:49.420Z,12.75
